Time;durP1;ratioP1;P1;durP2;ratioP2;P2;SDS_P1;SDS_P2;PMS_P1;PMS_P2;Temp;Humidity;BMP_temperature;BMP_pressure;BME280_temperature;BME280_humidity;BME280_pressure;Samples;Min_cycle;Max_cycle;Signal;HPM_P1;HPM_P2
2022/11/16 00:01:12;;;;;;;37.65;20.55;;;9.20;96.30;;;;;;4961037;28;20066;-77
2022/11/16 00:03:38;;;;;;;38.25;18.38;;;9.10;96.30;;;;;;4961096;28;20050;-77
2022/11/16 00:06:05;;;;;;;36.85;19.05;;;9.20;96.30;;;;;;4961541;28;20416;-77
2022/11/16 00:08:37;;;;;;;38.85;20.50;;;9.10;96.30;;;;;;4960767;28;20849;-77
2022/11/16 00:11:09;;;;;;;43.42;20.90;;;9.10;96.10;;;;;;4961529;28;20517;-78
2022/11/16 00:13:36;;;;;;;35.17;19.05;;;9.10;96.20;;;;;;4961298;28;20030;-77
2022/11/16 00:16:03;;;;;;;37.72;20.10;;;9.10;96.20;;;;;;4956913;28;20657;-77
2022/11/16 00:18:29;;;;;;;38.45;19.98;;;9.00;96.20;;;;;;4960823;28;20046;-78
2022/11/16 00:20:55;;;;;;;43.67;20.75;;;9.00;96.50;;;;;;4961956;28;20487;-77
2022/11/16 00:23:21;;;;;;;34.50;18.58;;;9.00;96.50;;;;;;4962253;28;20046;-78
2022/11/16 00:25:48;;;;;;;38.25;19.10;;;9.00;96.50;;;;;;4960847;28;20471;-77
2022/11/16 00:28:14;;;;;;;37.92;20.25;;;8.90;96.50;;;;;;4959416;28;20109;-77
2022/11/16 00:30:40;;;;;;;37.15;19.33;;;9.00;96.60;;;;;;4960767;28;20036;-78
2022/11/16 00:33:07;;;;;;;38.10;18.70;;;9.00;96.40;;;;;;4960673;28;20058;-78
2022/11/16 00:35:42;;;;;;;42.75;20.63;;;9.00;96.40;;;;;;4961923;28;20499;-77
2022/11/16 00:38:08;;;;;;;39.03;19.40;;;9.00;96.40;;;;;;4960786;28;20027;-77
2022/11/16 00:40:34;;;;;;;42.58;20.58;;;8.90;96.40;;;;;;4960284;28;20031;-78
2022/11/16 00:43:00;;;;;;;36.42;19.25;;;8.90;96.40;;;;;;4960187;28;20043;-78
2022/11/16 00:45:26;;;;;;;38.28;19.58;;;8.90;96.20;;;;;;4964247;28;20050;-77
2022/11/16 00:47:51;;;;;;;40.67;20.95;;;8.90;96.30;;;;;;4962421;28;20039;-77
2022/11/16 00:50:17;;;;;;;42.08;20.58;;;8.90;96.50;;;;;;4962294;28;20039;-77
2022/11/16 00:52:43;;;;;;;43.03;19.73;;;9.00;96.30;;;;;;4946711;28;20027;-77
2022/11/16 00:55:09;;;;;;;39.47;18.60;;;9.00;96.20;;;;;;4961444;28;20083;-77
2022/11/16 00:57:35;;;;;;;38.47;19.98;;;9.00;96.30;;;;;;4946627;28;20125;-77
2022/11/16 01:00:04;;;;;;;42.28;21.13;;;9.10;96.40;;;;;;4963391;28;20031;-77
2022/11/16 01:02:32;;;;;;;41.67;20.73;;;9.10;96.20;;;;;;4962673;28;20023;-77
2022/11/16 01:04:58;;;;;;;40.88;21.10;;;9.10;96.20;;;;;;4946486;28;20030;-77
2022/11/16 01:07:23;;;;;;;37.28;18.15;;;9.00;96.20;;;;;;4962201;28;20035;-77
2022/11/16 01:09:49;;;;;;;37.95;18.90;;;9.00;96.20;;;;;;4943830;28;20035;-77
2022/11/16 01:12:16;;;;;;;36.78;19.00;;;8.90;96.20;;;;;;4952675;28;20495;-77
2022/11/16 01:14:44;;;;;;;40.10;20.35;;;8.80;96.00;;;;;;4946259;28;20046;-77
2022/11/16 01:17:10;;;;;;;38.10;18.13;;;8.80;96.10;;;;;;4945580;28;20388;-77
2022/11/16 01:19:37;;;;;;;39.13;20.20;;;8.80;96.30;;;;;;4963220;28;20038;-77
2022/11/16 01:22:03;;;;;;;40.28;19.55;;;8.80;96.20;;;;;;4963333;28;20035;-77
2022/11/16 01:24:29;;;;;;;40.28;19.95;;;8.80;96.40;;;;;;4961223;28;20031;-77
2022/11/16 01:26:56;;;;;;;39.28;20.30;;;8.60;96.50;;;;;;4945698;28;20410;-77
2022/11/16 01:29:25;;;;;;;40.80;19.55;;;8.60;96.80;;;;;;4945067;28;20354;-77
2022/11/16 01:31:55;;;;;;;42.05;19.90;;;8.70;96.60;;;;;;4945468;28;20050;-78
2022/11/16 01:34:22;;;;;;;40.05;19.42;;;8.70;96.60;;;;;;4945609;28;20038;-77
2022/11/16 01:36:48;;;;;;;41.67;19.52;;;8.70;96.60;;;;;;4947541;28;20038;-77
2022/11/16 01:39:16;;;;;;;36.92;18.80;;;8.70;96.40;;;;;;4947267;28;20045;-78
2022/11/16 01:41:55;;;;;;;50.58;20.88;;;8.70;96.30;;;;;;4944749;28;20037;-77
2022/11/16 01:44:30;;;;;;;49.38;21.52;;;8.70;96.40;;;;;;4961648;28;20031;-77
2022/11/16 01:47:02;;;;;;;43.63;21.48;;;8.60;96.60;;;;;;4944660;28;20026;-77
2022/11/16 01:49:32;;;;;;;39.80;20.27;;;8.50;96.70;;;;;;4961316;28;20031;-77
2022/11/16 01:52:02;;;;;;;41.38;20.92;;;8.50;96.70;;;;;;4961520;28;20864;-77
2022/11/16 01:54:35;;;;;;;42.72;19.48;;;8.50;96.60;;;;;;4948238;28;20110;-78
2022/11/16 01:57:04;;;;;;;40.17;19.58;;;8.50;96.70;;;;;;4962155;28;20042;-78
2022/11/16 01:59:40;;;;;;;40.08;19.85;;;8.50;96.70;;;;;;4943994;28;20090;-78
2022/11/16 02:02:11;;;;;;;39.80;20.05;;;8.40;96.80;;;;;;4961812;28;20034;-77
2022/11/16 02:04:37;;;;;;;40.13;19.85;;;8.40;96.60;;;;;;4944285;28;20282;-78
2022/11/16 02:07:29;;;;;;;42.83;19.48;;;8.40;96.80;;;;;;4943634;28;20027;-77
2022/11/16 02:10:10;;;;;;;38.90;18.40;;;8.40;96.70;;;;;;4948858;28;20669;-77
2022/11/16 02:13:00;;;;;;;36.47;17.77;;;8.40;96.90;;;;;;4942208;28;20411;-78
2022/11/16 02:15:51;;;;;;;39.35;18.75;;;8.40;96.80;;;;;;4943292;28;20117;-77
2022/11/16 02:18:35;;;;;;;40.53;18.83;;;8.30;96.70;;;;;;4959694;28;20754;-77
2022/11/16 02:21:13;;;;;;;40.53;19.48;;;8.30;96.70;;;;;;4945115;28;20030;-78
2022/11/16 02:23:52;;;;;;;43.72;20.00;;;8.20;96.80;;;;;;4960531;28;20152;-77
2022/11/16 02:26:45;;;;;;;39.65;19.30;;;8.20;96.90;;;;;;4942601;28;20027;-77
2022/11/16 02:29:18;;;;;;;36.53;18.10;;;8.10;96.90;;;;;;4942922;28;20105;-77
2022/11/16 02:32:02;;;;;;;43.85;19.08;;;8.10;96.90;;;;;;4943061;28;20039;-77
2022/11/16 02:34:33;;;;;;;40.28;18.27;;;8.00;96.80;;;;;;4960263;28;20043;-77
2022/11/16 02:37:03;;;;;;;38.47;19.60;;;8.00;97.00;;;;;;4946159;28;20031;-78
2022/11/16 02:39:31;;;;;;;37.10;18.92;;;7.90;97.30;;;;;;4943253;28;20150;-78
2022/11/16 02:41:58;;;;;;;37.53;17.88;;;7.70;97.60;;;;;;4944000;28;20109;-77
2022/11/16 02:44:33;;;;;;;40.30;18.02;;;7.70;97.90;;;;;;4942732;28;20026;-78
2022/11/16 02:47:03;;;;;;;39.35;19.60;;;7.80;97.90;;;;;;4960801;28;20038;-77
2022/11/16 02:49:37;;;;;;;37.72;18.13;;;7.80;97.70;;;;;;4944689;28;20041;-77
2022/11/16 02:52:04;;;;;;;38.28;18.38;;;7.90;97.50;;;;;;4942050;28;20526;-77
2022/11/16 02:54:30;;;;;;;39.13;18.42;;;7.90;97.40;;;;;;4943017;28;20061;-77
2022/11/16 02:57:02;;;;;;;37.08;18.55;;;7.90;97.50;;;;;;4943947;28;20039;-77
2022/11/16 02:59:43;;;;;;;44.17;20.35;;;8.00;97.50;;;;;;4958403;28;20030;-78
2022/11/16 03:02:14;;;;;;;39.60;19.58;;;7.90;97.40;;;;;;4941510;28;20026;-77
2022/11/16 03:04:44;;;;;;;43.65;20.90;;;8.00;97.50;;;;;;4957189;28;20536;-77
2022/11/16 03:07:14;;;;;;;36.90;19.25;;;7.90;97.50;;;;;;4959071;28;20090;-77
2022/11/16 03:09:42;;;;;;;45.65;20.48;;;7.90;97.60;;;;;;4943023;28;20085;-77
2022/11/16 03:12:12;;;;;;;39.90;19.83;;;7.90;97.80;;;;;;4941799;28;20023;-78
2022/11/16 03:14:47;;;;;;;42.55;19.38;;;8.00;97.60;;;;;;4943661;28;20570;-77
2022/11/16 03:17:20;;;;;;;;;;;8.10;97.50;;;;;;4942297;28;20023;-77
2022/11/16 03:20:05;;;;;;;41.85;18.63;;;8.10;97.00;;;;;;4956937;28;19922;-77
2022/11/16 03:22:42;;;;;;;39.53;19.73;;;7.90;97.20;;;;;;4941747;28;20050;-77
2022/11/16 03:25:11;;;;;;;38.38;17.58;;;7.80;97.40;;;;;;4959478;28;20114;-77
2022/11/16 03:27:55;;;;;;;41.38;19.10;;;7.80;97.40;;;;;;4960050;28;20779;-77
2022/11/16 03:30:26;;;;;;;41.30;18.65;;;7.80;97.50;;;;;;4945172;28;20039;-77
2022/11/16 03:33:09;;;;;;;44.35;20.23;;;7.60;97.70;;;;;;4959319;28;20150;-77
2022/11/16 03:35:53;;;;;;;44.25;19.92;;;7.50;98.00;;;;;;4959730;28;20034;-77
2022/11/16 03:38:21;;;;;;;37.72;18.42;;;7.50;98.20;;;;;;4955828;28;20042;-77
2022/11/16 03:40:49;;;;;;;43.92;19.92;;;7.30;98.40;;;;;;4961781;28;20078;-77
2022/11/16 03:43:17;;;;;;;43.53;20.40;;;7.40;98.50;;;;;;4958673;28;20783;-77
2022/11/16 03:45:45;;;;;;;42.65;19.27;;;7.40;98.40;;;;;;4960894;28;20023;-77
2022/11/16 03:48:12;;;;;;;40.10;18.98;;;7.30;98.40;;;;;;4945198;28;20018;-77
2022/11/16 03:50:41;;;;;;;42.08;19.98;;;7.40;98.70;;;;;;4944506;28;20046;-76
2022/11/16 03:53:08;;;;;;;44.50;19.92;;;7.40;98.50;;;;;;4943202;28;20037;-77
2022/11/16 03:55:35;;;;;;;43.65;19.02;;;7.50;98.10;;;;;;4945123;28;20178;-77
2022/11/16 03:58:01;;;;;;;41.28;18.73;;;7.40;98.10;;;;;;4942778;28;20031;-77
2022/11/16 04:00:27;;;;;;;41.38;19.13;;;7.50;98.10;;;;;;4942094;28;20038;-77
2022/11/16 04:02:52;;;;;;;40.33;18.63;;;7.50;98.00;;;;;;4960357;28;20058;-77
2022/11/16 04:25:09;;;;;;;44.35;19.77;;;7.30;98.60;;;;;;4964309;28;20145;-78
2022/11/16 04:30:19;;;;;;;39.33;18.85;;;7.30;98.60;;;;;;4947357;28;20769;-77
2022/11/16 04:38:14;;;;;;;45.92;19.77;;;7.50;98.40;;;;;;4963297;28;20042;-77
2022/11/16 04:40:40;;;;;;;40.58;19.35;;;7.50;98.30;;;;;;4946191;28;20624;-77
2022/11/16 04:43:08;;;;;;;40.20;18.27;;;7.50;98.00;;;;;;4962382;28;20077;-77
2022/11/16 04:48:39;;;;;;;44.40;20.77;;;7.50;98.20;;;;;;4903316;29;20125;-77
2022/11/16 04:51:05;;;;;;;46.30;20.20;;;7.60;98.10;;;;;;4949194;28;20047;-77
2022/11/16 04:53:32;;;;;;;50.55;20.15;;;7.60;98.00;;;;;;4946972;28;20089;-77
2022/11/16 04:56:06;;;;;;;42.80;20.33;;;7.50;97.80;;;;;;4945852;28;20023;-77
2022/11/16 04:58:33;;;;;;;47.85;20.05;;;7.50;98.20;;;;;;4946299;28;20031;-77
2022/11/16 05:00:59;;;;;;;43.05;20.38;;;7.40;98.30;;;;;;4963157;28;20031;-78
2022/11/16 05:03:25;;;;;;;47.75;21.05;;;7.50;98.40;;;;;;4946762;28;20246;-77
2022/11/16 05:05:50;;;;;;;45.63;20.50;;;7.50;98.30;;;;;;4962968;28;20117;-77
2022/11/16 05:08:17;;;;;;;45.95;20.63;;;7.50;98.20;;;;;;4965550;28;20035;-77
2022/11/16 05:10:44;;;;;;;48.33;21.35;;;7.60;98.30;;;;;;4944879;28;20109;-77
2022/11/16 05:13:10;;;;;;;51.13;21.70;;;7.70;98.10;;;;;;4961676;28;20823;-77
2022/11/16 05:15:36;;;;;;;49.00;22.42;;;7.70;98.20;;;;;;4956395;28;20042;-77
2022/11/16 05:18:03;;;;;;;42.53;20.75;;;7.70;98.00;;;;;;4948841;28;20098;-77
2022/11/16 05:26:04;;;;;;;53.30;22.35;;;7.90;97.70;;;;;;4944651;28;20058;-77
2022/11/16 05:28:29;;;;;;;57.13;24.45;;;7.80;97.70;;;;;;4961067;28;20121;-77
2022/11/16 05:30:56;;;;;;;51.65;23.40;;;7.70;97.90;;;;;;4946040;28;20026;-75
2022/11/16 05:33:25;;;;;;;48.47;22.73;;;7.70;98.10;;;;;;4953121;28;20038;-78
2022/11/16 05:35:51;;;;;;;50.63;21.25;;;7.80;98.20;;;;;;4949381;28;20053;-76
2022/11/16 05:38:18;;;;;;;62.33;24.90;;;7.80;98.10;;;;;;4960558;28;20037;-77
2022/11/16 05:40:47;;;;;;;57.97;24.50;;;7.90;97.90;;;;;;4960439;28;20043;-78
2022/11/16 05:43:13;;;;;;;57.05;24.58;;;8.00;97.80;;;;;;4947339;28;20037;-77
2022/11/16 05:45:47;;;;;;;53.30;22.95;;;8.00;97.80;;;;;;4945810;28;20037;-78
2022/11/16 05:48:14;;;;;;;51.47;22.52;;;8.00;97.70;;;;;;4959900;28;20046;-77
2022/11/16 05:50:40;;;;;;;52.53;23.83;;;8.00;97.60;;;;;;4963932;28;20042;-77
2022/11/16 05:53:11;;;;;;;60.13;26.20;;;7.90;97.70;;;;;;4945539;28;20073;-77
2022/11/16 05:55:38;;;;;;;52.95;23.10;;;7.90;98.00;;;;;;4943406;28;20038;-77
2022/11/16 05:58:03;;;;;;;53.50;22.85;;;7.90;98.20;;;;;;4965051;28;20042;-77
2022/11/16 06:00:29;;;;;;;67.00;24.52;;;7.90;98.20;;;;;;4960208;28;20026;-77
2022/11/16 06:02:55;;;;;;;62.50;25.25;;;8.00;98.10;;;;;;4962268;28;20121;-77
2022/11/16 06:05:26;;;;;;;59.38;24.35;;;8.00;98.10;;;;;;4959106;28;20055;-77
2022/11/16 06:07:53;;;;;;;58.15;24.13;;;7.90;98.10;;;;;;4962803;28;20035;-77
2022/11/16 06:10:19;;;;;;;57.60;24.52;;;7.90;98.40;;;;;;4961840;28;20039;-77
2022/11/16 06:12:48;;;;;;;59.33;23.33;;;7.90;98.40;;;;;;4944440;28;20034;-77
2022/11/16 06:15:13;;;;;;;58.03;24.00;;;7.90;98.30;;;;;;4943999;28;20035;-77
2022/11/16 06:17:39;;;;;;;60.22;25.13;;;7.90;98.40;;;;;;4960058;28;20757;-78
2022/11/16 06:20:07;;;;;;;65.78;26.30;;;8.00;98.50;;;;;;4959962;28;20074;-77
2022/11/16 06:22:33;;;;;;;59.28;23.65;;;8.00;98.30;;;;;;4941404;28;20027;-77
2022/11/16 06:24:58;;;;;;;54.30;22.83;;;8.00;98.60;;;;;;4960335;28;20919;-77
2022/11/16 06:27:25;;;;;;;58.70;24.48;;;8.00;98.60;;;;;;4944185;28;20569;-77
2022/11/16 06:29:50;;;;;;;70.25;26.88;;;8.00;98.40;;;;;;4959805;28;20038;-77
2022/11/16 06:32:16;;;;;;;63.33;24.95;;;8.00;98.40;;;;;;4961446;28;20074;-77
2022/11/16 06:34:42;;;;;;;56.08;21.73;;;8.00;98.60;;;;;;4942729;28;20503;-77
2022/11/16 06:37:08;;;;;;;64.18;24.05;;;8.00;98.60;;;;;;4963016;28;20042;-77
2022/11/16 06:39:34;;;;;;;61.75;24.92;;;8.00;98.60;;;;;;4946291;28;20033;-77
2022/11/16 06:42:00;;;;;;;69.75;25.55;;;8.10;98.60;;;;;;4964031;28;20406;-77
2022/11/16 06:44:27;;;;;;;64.82;25.77;;;8.10;98.60;;;;;;4959636;28;20031;-77
2022/11/16 06:46:57;;;;;;;60.85;24.45;;;8.10;98.40;;;;;;4941314;28;20027;-77
2022/11/16 06:49:23;;;;;;;65.18;24.90;;;8.20;98.40;;;;;;4957818;28;20082;-77
2022/11/16 06:51:51;;;;;;;66.70;26.02;;;8.20;98.60;;;;;;4959428;28;20681;-77
2022/11/16 06:54:17;;;;;;;62.97;25.65;;;8.20;98.50;;;;;;4959821;28;20038;-77
2022/11/16 06:56:43;;;;;;;66.45;24.77;;;8.20;98.30;;;;;;4959049;28;20812;-75
2022/11/16 06:59:09;;;;;;;63.67;23.55;;;8.30;98.40;;;;;;4955118;28;20093;-77
2022/11/16 07:01:35;;;;;;;62.97;23.38;;;8.20;98.50;;;;;;4956443;28;20109;-77
2022/11/16 07:04:10;;;;;;;61.67;24.38;;;8.20;98.50;;;;;;4959690;28;20053;-77
2022/11/16 07:06:37;;;;;;;69.47;26.45;;;8.30;98.40;;;;;;4946131;28;20117;-78
2022/11/16 07:09:08;;;;;;;61.15;24.25;;;8.30;98.30;;;;;;4959023;28;20031;-77
2022/11/16 07:11:34;;;;;;;63.05;25.92;;;8.40;98.20;;;;;;4957156;28;20522;-77
2022/11/16 07:14:01;;;;;;;67.05;26.92;;;8.40;98.30;;;;;;4959250;28;20524;-77
2022/11/16 07:16:27;;;;;;;60.72;23.25;;;8.40;98.00;;;;;;4942264;28;20031;-77
2022/11/16 07:18:58;;;;;;;70.00;24.40;;;8.30;98.30;;;;;;4962348;28;20879;-76
2022/11/16 07:21:24;;;;;;;74.68;26.52;;;8.40;98.30;;;;;;4961291;28;20066;-77
2022/11/16 07:23:53;;;;;;;69.50;25.17;;;8.50;98.30;;;;;;4958871;28;20710;-77
2022/11/16 07:26:21;;;;;;;64.95;24.80;;;8.50;98.10;;;;;;4958695;28;20027;-77
2022/11/16 07:28:52;;;;;;;71.80;26.80;;;8.50;98.00;;;;;;4946839;28;20030;-77
2022/11/16 07:31:20;;;;;;;58.08;24.02;;;8.50;98.00;;;;;;4948516;28;20065;-78
2022/11/16 07:34:03;;;;;;;77.07;25.83;;;8.40;98.30;;;;;;4942648;28;20031;-77
2022/11/16 07:36:39;;;;;;;73.20;25.40;;;8.50;98.20;;;;;;4956596;28;20066;-78
2022/11/16 07:39:09;;;;;;;68.85;25.88;;;8.50;98.20;;;;;;4942638;28;20158;-77
2022/11/16 07:41:37;;;;;;;70.18;25.70;;;8.50;98.10;;;;;;4943801;28;20038;-77
2022/11/16 07:44:12;;;;;;;70.50;26.48;;;8.50;97.80;;;;;;4960749;28;20023;-78
2022/11/16 07:46:40;;;;;;;64.53;25.08;;;8.60;98.00;;;;;;4942405;28;20357;-79
2022/11/16 07:49:12;;;;;;;67.25;25.13;;;8.60;98.00;;;;;;4958693;28;20034;-79
2022/11/16 07:51:45;;;;;;;66.75;24.73;;;8.60;98.20;;;;;;4945642;28;20210;-78
2022/11/16 07:54:28;;;;;;;70.63;25.38;;;8.60;98.00;;;;;;4941966;28;20424;-78
2022/11/16 07:56:55;;;;;;;71.13;24.20;;;8.60;98.10;;;;;;4958862;28;20050;-78
2022/11/16 07:59:21;;;;;;;73.05;25.38;;;8.60;97.90;;;;;;4943142;28;20030;-77
2022/11/16 08:01:48;;;;;;;77.47;26.98;;;8.60;97.90;;;;;;4962272;28;20026;-78
2022/11/16 08:04:16;;;;;;;67.38;25.77;;;8.60;97.90;;;;;;4957017;28;20061;-78
2022/11/16 08:06:43;;;;;;;66.65;24.88;;;8.60;97.90;;;;;;4956470;28;20043;-78
2022/11/16 08:09:09;;;;;;;69.55;24.58;;;8.60;97.90;;;;;;4942997;28;20273;-78
2022/11/16 08:11:36;;;;;;;73.15;25.05;;;8.50;98.20;;;;;;4945069;28;20050;-77
2022/11/16 08:14:03;;;;;;;71.53;26.45;;;8.50;98.10;;;;;;4954480;28;20105;-77
2022/11/16 08:16:32;;;;;;;73.28;26.33;;;8.40;98.50;;;;;;4942091;28;20078;-76
2022/11/16 08:19:05;;;;;;;;;;;8.30;98.70;;;;;;4941150;28;20053;-77
2022/11/16 08:21:32;;;;;;;76.30;24.95;;;8.20;99.00;;;;;;4961171;28;19922;-77
2022/11/16 08:23:58;;;;;;;72.32;25.15;;;8.20;99.20;;;;;;4942999;28;20094;-77
2022/11/16 08:26:24;;;;;;;69.32;24.08;;;8.40;99.10;;;;;;4955714;28;20033;-74
2022/11/16 08:28:58;;;;;;;74.53;25.63;;;8.40;99.10;;;;;;4947183;28;20406;-76
2022/11/16 08:31:28;;;;;;;72.88;25.15;;;8.50;99.00;;;;;;4958554;28;20058;-75
2022/11/16 08:34:04;;;;;;;77.35;25.85;;;8.50;98.80;;;;;;4957451;28;20108;-73
2022/11/16 08:36:31;;;;;;;74.30;25.02;;;8.50;99.00;;;;;;4958049;28;20031;-74
2022/11/16 08:38:58;;;;;;;83.63;26.23;;;8.50;99.20;;;;;;4942997;28;20084;-75
2022/11/16 08:41:24;;;;;;;86.45;26.88;;;8.50;99.00;;;;;;4959567;28;20121;-74
2022/11/16 08:43:51;;;;;;;80.15;27.73;;;8.50;99.20;;;;;;4959586;28;20031;-81
2022/11/16 08:46:19;;;;;;;94.60;29.48;;;8.50;99.30;;;;;;4941011;28;20102;-77
2022/11/16 08:48:54;;;;;;;89.90;26.92;;;8.60;99.20;;;;;;4957682;28;20034;-75
2022/11/16 08:51:20;;;;;;;83.03;26.40;;;8.60;99.10;;;;;;4958966;28;20507;-77
2022/11/16 08:53:56;;;;;;;83.47;24.77;;;8.60;98.90;;;;;;4943417;28;20591;-76
2022/11/16 08:56:26;;;;;;;86.50;27.77;;;8.60;99.20;;;;;;4942065;28;20376;-76
2022/11/16 08:58:53;;;;;;;83.70;25.35;;;8.60;99.10;;;;;;4958682;28;20122;-76
2022/11/16 09:01:21;;;;;;;77.25;25.50;;;8.60;99.20;;;;;;4957844;28;20423;-75
2022/11/16 09:03:51;;;;;;;80.93;26.38;;;8.60;99.20;;;;;;4959715;28;20038;-73
2022/11/16 09:06:17;;;;;;;79.47;27.88;;;8.70;99.30;;;;;;4961117;28;20043;-76
2022/11/16 09:08:44;;;;;;;75.72;25.40;;;8.80;99.10;;;;;;4961955;28;20026;-77
2022/11/16 09:11:16;;;;;;;85.97;26.30;;;8.80;98.90;;;;;;4961236;28;20045;-74
2022/11/16 09:13:43;;;;;;;86.47;26.42;;;8.80;99.00;;;;;;4960102;28;20033;-77
2022/11/16 09:16:10;;;;;;;96.10;27.63;;;8.80;98.90;;;;;;4964159;28;20089;-78
2022/11/16 09:18:36;;;;;;;84.35;26.25;;;8.80;98.90;;;;;;4945234;28;20042;-76
2022/11/16 09:21:03;;;;;;;85.22;26.98;;;8.80;98.90;;;;;;4962555;28;20129;-78
2022/11/16 09:23:28;;;;;;;92.28;25.98;;;8.70;99.10;;;;;;4959182;28;20137;-76
2022/11/16 09:25:54;;;;;;;85.38;25.60;;;8.80;99.00;;;;;;4963423;28;20513;-76
2022/11/16 09:28:21;;;;;;;79.30;26.75;;;8.80;99.00;;;;;;4964039;28;20031;-77
2022/11/16 09:30:49;;;;;;;85.32;27.35;;;8.90;98.70;;;;;;4962400;28;20038;-76
2022/11/16 09:33:15;;;;;;;79.28;25.38;;;8.80;98.80;;;;;;4963825;28;20034;-75
2022/11/16 09:35:41;;;;;;;87.70;26.75;;;8.80;99.00;;;;;;4962906;28;20046;-75
2022/11/16 09:38:08;;;;;;;85.00;26.90;;;8.90;98.90;;;;;;4959849;28;20034;-75
2022/11/16 09:40:40;;;;;;;89.63;27.38;;;8.80;98.80;;;;;;4960019;28;20046;-77
2022/11/16 09:43:30;;;;;;;95.95;27.48;;;8.80;98.90;;;;;;4959945;28;20037;-76
2022/11/16 09:46:39;;;;;;;83.82;26.65;;;8.90;99.00;;;;;;4962319;28;20617;-75
2022/11/16 09:49:14;;;;;;;80.43;25.80;;;8.90;98.70;;;;;;4961065;28;20053;-75
2022/11/16 09:51:43;;;;;;;81.43;25.70;;;8.80;98.60;;;;;;4961202;28;20042;-74
2022/11/16 09:54:17;;;;;;;84.10;25.13;;;8.80;98.80;;;;;;4959588;28;20043;-76
2022/11/16 09:56:45;;;;;;;77.63;25.20;;;8.80;98.60;;;;;;4961582;28;20051;-74
2022/11/16 09:59:20;;;;;;;72.15;23.40;;;8.80;98.40;;;;;;4960239;28;20042;-75
2022/11/16 10:01:49;;;;;;;79.03;26.38;;;8.70;98.30;;;;;;4961055;28;20056;-74
2022/11/16 10:04:15;;;;;;;77.97;26.17;;;8.60;98.80;;;;;;4963856;28;20037;-73
2022/11/16 10:06:50;;;;;;;68.13;23.08;;;8.40;99.00;;;;;;4962333;28;20030;-73
2022/11/16 10:09:16;;;;;;;84.32;23.95;;;8.40;99.20;;;;;;4958679;28;20410;-73
2022/11/16 10:12:05;;;;;;;70.30;23.45;;;8.40;99.30;;;;;;4960603;28;20117;-75
2022/11/16 10:14:37;;;;;;;75.68;24.00;;;8.50;99.20;;;;;;4950908;28;20047;-74
2022/11/16 10:17:42;;;;;;;68.72;24.08;;;8.60;99.00;;;;;;4962173;28;20042;-75
2022/11/16 10:20:32;;;;;;;70.10;24.00;;;8.70;98.40;;;;;;4958842;28;20538;-74
2022/11/16 10:23:33;;;;;;;63.40;22.50;;;8.90;98.40;;;;;;4956272;28;20659;-75
2022/11/16 10:26:31;;;;;;;66.45;22.00;;;8.80;98.00;;;;;;4922085;28;20562;-75
2022/11/16 10:29:18;;;;;;;71.07;20.92;;;8.80;97.90;;;;;;4934144;28;20498;-74
2022/11/16 10:31:53;;;;;;;;;;;8.70;98.00;;;;;;4957926;28;20569;-75
2022/11/16 10:34:23;;;;;;;67.47;21.63;;;8.80;98.20;;;;;;4960939;28;19914;-74
2022/11/16 10:36:49;;;;;;;69.85;22.35;;;8.80;98.20;;;;;;4961056;28;20145;-77
2022/11/16 10:39:17;;;;;;;64.60;20.45;;;8.80;98.00;;;;;;4960439;28;20045;-75
2022/11/16 10:41:47;;;;;;;66.95;21.10;;;8.80;97.90;;;;;;4961016;28;20746;-75
2022/11/16 10:44:35;;;;;;;61.92;19.80;;;8.80;97.80;;;;;;4943221;28;20495;-74
2022/11/16 10:47:13;;;;;;;60.92;19.60;;;8.80;97.90;;;;;;4960190;28;20457;-76
2022/11/16 10:49:52;;;;;;;48.88;19.25;;;8.90;97.80;;;;;;4960696;28;20031;-76
2022/11/16 10:52:18;;;;;;;55.67;18.83;;;9.00;97.50;;;;;;4959174;28;20026;-75
2022/11/16 10:54:43;;;;;;;52.75;18.98;;;9.00;97.30;;;;;;4961320;28;20096;-75
2022/11/16 10:57:12;;;;;;;50.95;16.98;;;8.80;97.50;;;;;;4960473;28;20073;-78
2022/11/16 10:59:47;;;;;;;46.45;17.60;;;8.80;97.60;;;;;;4942986;28;20097;-75
2022/11/16 11:02:25;;;;;;;46.15;16.50;;;8.80;97.70;;;;;;4960517;28;20031;-76
2022/11/16 11:05:01;;;;;;;44.10;15.93;;;8.70;97.70;;;;;;4958167;28;20035;-74
2022/11/16 11:07:29;;;;;;;;;;;8.80;97.60;;;;;;4960922;28;20042;-74
2022/11/16 11:09:54;;;;;;;48.35;15.88;;;8.90;97.60;;;;;;4959555;28;20005;-74
2022/11/16 11:12:55;;;;;;;45.40;15.82;;;8.90;97.20;;;;;;4957973;28;20039;-74
2022/11/16 11:15:21;;;;;;;37.72;14.40;;;8.90;97.20;;;;;;4957113;28;20061;-74
2022/11/16 11:17:49;;;;;;;34.63;13.80;;;9.00;97.30;;;;;;4959037;28;20066;-74
2022/11/16 11:20:15;;;;;;;38.10;15.15;;;9.00;97.10;;;;;;4956919;28;20077;-74
2022/11/16 11:22:57;;;;;;;33.88;13.57;;;9.00;96.90;;;;;;4960433;28;20106;-74
2022/11/16 11:25:52;;;;;;;34.00;13.18;;;9.00;96.90;;;;;;4963128;28;20798;-74
2022/11/16 11:28:30;;;;;;;28.77;11.80;;;8.90;97.20;;;;;;4956261;28;20061;-74
2022/11/16 11:31:01;;;;;;;31.10;11.63;;;8.90;97.00;;;;;;4959911;28;20045;-75
2022/11/16 11:33:42;;;;;;;28.98;11.77;;;9.00;97.00;;;;;;4955393;28;20145;-74
2022/11/16 11:36:21;;;;;;;27.48;12.15;;;9.10;96.90;;;;;;4959391;28;20670;-74
2022/11/16 11:39:05;;;;;;;29.23;11.40;;;9.00;96.70;;;;;;4949709;28;20043;-72
2022/11/16 11:41:42;;;;;;;26.40;11.07;;;9.00;96.80;;;;;;4959569;28;20115;-71
2022/11/16 11:44:17;;;;;;;30.83;12.77;;;9.00;96.60;;;;;;4963355;28;20365;-74
2022/11/16 11:46:51;;;;;;;30.13;11.93;;;8.90;96.60;;;;;;4958258;28;20037;-74
2022/11/16 11:49:33;;;;;;;30.67;12.85;;;8.80;96.90;;;;;;4957928;28;20043;-74
2022/11/16 11:52:05;;;;;;;27.33;11.25;;;8.80;97.10;;;;;;4965392;28;20101;-75
2022/11/16 11:54:40;;;;;;;30.92;12.98;;;8.80;97.10;;;;;;4954268;28;20035;-74
2022/11/16 11:57:11;;;;;;;29.25;11.60;;;8.80;97.00;;;;;;4956879;28;20043;-76
2022/11/16 11:59:37;;;;;;;33.78;13.45;;;8.70;96.90;;;;;;4957558;28;20046;-74
2022/11/16 12:02:40;;;;;;;31.85;14.05;;;8.60;96.90;;;;;;4960797;28;20071;-75
2022/11/16 12:05:41;;;;;;;34.42;14.05;;;8.50;97.40;;;;;;4959306;28;20043;-75
2022/11/16 12:08:20;;;;;;;37.10;15.20;;;8.40;97.60;;;;;;4954925;28;20047;-77
2022/11/16 12:10:50;;;;;;;32.28;14.43;;;8.50;97.30;;;;;;4953881;28;20077;-73
2022/11/16 12:13:21;;;;;;;40.22;16.20;;;8.50;97.20;;;;;;4960046;28;20509;-74
2022/11/16 12:15:50;;;;;;;31.83;14.45;;;8.50;97.20;;;;;;4959599;28;20058;-73
2022/11/16 12:18:19;;;;;;;38.00;15.38;;;8.50;97.10;;;;;;4958164;28;20133;-73
2022/11/16 12:21:00;;;;;;;37.80;16.50;;;8.60;97.20;;;;;;4957595;28;20049;-72
2022/11/16 12:23:37;;;;;;;38.55;16.50;;;8.60;96.80;;;;;;4958088;28;20035;-73
2022/11/16 12:26:31;;;;;;;37.17;15.88;;;8.70;96.80;;;;;;4955390;28;20445;-74
2022/11/16 12:29:11;;;;;;;37.00;16.42;;;8.60;96.50;;;;;;4959418;28;20863;-74
2022/11/16 12:32:04;;;;;;;36.22;15.80;;;8.50;96.50;;;;;;4959374;28;20142;-73
2022/11/16 12:34:33;;;;;;;36.92;16.15;;;8.50;96.60;;;;;;4958499;28;20034;-73
2022/11/16 12:37:13;;;;;;;36.30;15.65;;;8.50;96.50;;;;;;4956780;28;20065;-74
2022/11/16 12:39:55;;;;;;;39.22;16.00;;;8.50;96.70;;;;;;4962859;28;20217;-73
2022/11/16 12:42:21;;;;;;;36.35;16.33;;;8.60;96.40;;;;;;4960553;28;20212;-73
2022/11/16 12:44:59;;;;;;;30.40;15.27;;;8.50;96.60;;;;;;4961929;28;20031;-73
2022/11/16 12:47:48;;;;;;;29.45;15.00;;;8.60;96.20;;;;;;4962838;28;20522;-73
2022/11/16 12:50:23;;;;;;;32.67;13.70;;;8.60;95.90;;;;;;4927595;28;20046;-73
2022/11/16 12:53:09;;;;;;;28.05;14.27;;;8.60;95.80;;;;;;4969780;28;20031;-72
2022/11/16 12:55:44;;;;;;;32.38;14.68;;;8.60;95.50;;;;;;4963604;28;20036;-73
2022/11/16 12:58:19;;;;;;;28.88;13.57;;;8.60;95.60;;;;;;4961684;28;20113;-74
2022/11/16 13:01:15;;;;;;;33.22;14.10;;;8.60;95.70;;;;;;4960523;28;20450;-74
2022/11/16 13:03:50;;;;;;;28.25;13.50;;;8.60;95.60;;;;;;4961348;28;20039;-73
2022/11/16 13:06:30;;;;;;;27.40;13.73;;;8.50;95.90;;;;;;4961421;28;20491;-71
2022/11/16 13:09:15;;;;;;;28.58;12.85;;;8.50;95.80;;;;;;4963991;28;20054;-72
2022/11/16 13:11:49;;;;;;;27.85;13.65;;;8.60;95.50;;;;;;4958816;28;20100;-73
2022/11/16 13:14:22;;;;;;;30.70;12.57;;;8.50;95.40;;;;;;4962126;28;20035;-73
2022/11/16 13:16:50;;;;;;;27.33;13.77;;;8.50;95.60;;;;;;4962793;28;20039;-72
2022/11/16 13:19:16;;;;;;;29.00;13.73;;;8.50;95.60;;;;;;4961474;28;20724;-73
2022/11/16 13:22:20;;;;;;;24.00;12.98;;;8.60;95.50;;;;;;4962824;28;20030;-73
2022/11/16 13:25:07;;;;;;;29.38;13.35;;;8.60;95.40;;;;;;4951840;28;20054;-75
2022/11/16 13:27:54;;;;;;;28.17;12.88;;;8.60;95.10;;;;;;4962655;28;20030;-73
2022/11/16 13:30:21;;;;;;;28.67;13.25;;;8.60;95.40;;;;;;4960034;28;20467;-74
2022/11/16 13:32:56;;;;;;;28.00;13.45;;;8.50;95.10;;;;;;4964510;28;20034;-73
2022/11/16 13:35:22;;;;;;;28.50;13.23;;;8.60;95.40;;;;;;4964020;28;20034;-72
2022/11/16 13:37:50;;;;;;;25.55;12.75;;;8.60;95.40;;;;;;4966189;28;20066;-73